createdAt,value
2023-03-03T00:00:16.280Z,56.13
2023-03-03T00:02:42.930Z,47.92
2023-03-03T00:05:10.289Z,53.88
2023-03-03T00:07:36.920Z,51.20
2023-03-03T00:10:04.554Z,58.95
2023-03-03T00:12:31.385Z,55.50
2023-03-03T00:15:00.568Z,63.60
2023-03-03T00:17:32.732Z,59.33
2023-03-03T00:19:59.380Z,62.72
2023-03-03T00:22:36.188Z,55.80
2023-03-03T00:25:37.334Z,57.65
2023-03-03T00:28:25.791Z,57.55
2023-03-03T00:30:54.036Z,56.20
2023-03-03T00:33:34.534Z,57.83
2023-03-03T00:36:22.425Z,59.58
2023-03-03T00:38:49.770Z,57.90
2023-03-03T00:41:24.236Z,56.47
2023-03-03T00:43:52.261Z,60.10
2023-03-03T00:46:23.637Z,59.42
2023-03-03T00:48:51.470Z,63.45
2023-03-03T00:51:34.348Z,55.58
2023-03-03T00:54:03.542Z,57.55
2023-03-03T00:56:30.359Z,58.20
2023-03-03T00:58:59.526Z,59.40
2023-03-03T01:01:28.686Z,60.10
2023-03-03T01:03:57.840Z,60.55
2023-03-03T01:06:24.741Z,62.47
2023-03-03T01:08:51.490Z,57.95
2023-03-03T01:11:25.362Z,59.72
2023-03-03T01:13:55.633Z,57.75
2023-03-03T01:16:24.601Z,63.33
2023-03-03T01:18:53.667Z,56.20
2023-03-03T01:21:22.477Z,58.78
2023-03-03T01:23:49.114Z,65.78
2023-03-03T01:26:18.538Z,61.60
2023-03-03T01:28:45.497Z,61.33
2023-03-03T01:31:17.038Z,60.08
2023-03-03T01:33:46.294Z,68.70
2023-03-03T01:36:12.952Z,61.38
2023-03-03T01:38:43.192Z,68.70
2023-03-03T01:41:12.255Z,69.93
2023-03-03T01:43:48.348Z,66.97
2023-03-03T01:46:40.743Z,68.05
2023-03-03T01:49:19.369Z,64.10
2023-03-03T01:51:52.417Z,69.05
2023-03-03T01:54:25.311Z,61.60
2023-03-03T01:56:58.737Z,71.28
2023-03-03T01:59:31.113Z,71.05
2023-03-03T02:01:58.047Z,68.32
2023-03-03T02:04:28.473Z,71.88
2023-03-03T02:07:04.306Z,73.15
2023-03-03T02:09:57.974Z,72.60
2023-03-03T02:12:34.733Z,73.65
2023-03-03T02:15:01.657Z,72.35
2023-03-03T02:17:30.600Z,75.78
2023-03-03T02:20:20.332Z,69.40
2023-03-03T02:23:02.277Z,70.15
2023-03-03T02:26:07.779Z,67.57
2023-03-03T02:28:36.064Z,71.72
2023-03-03T02:31:05.742Z,64.82
2023-03-03T02:33:32.492Z,67.93
2023-03-03T02:36:01.626Z,75.63
2023-03-03T02:38:40.052Z,71.53
2023-03-03T02:41:34.184Z,68.72
2023-03-03T02:44:04.390Z,70.68
2023-03-03T02:46:36.990Z,67.20
2023-03-03T02:49:09.923Z,71.07
2023-03-03T02:51:43.052Z,66.50
2023-03-03T02:54:12.059Z,67.03
2023-03-03T02:56:39.000Z,67.85
2023-03-03T02:59:06.329Z,71.65
2023-03-03T03:01:36.994Z,70.28
2023-03-03T03:04:13.616Z,68.25
2023-03-03T03:06:43.535Z,67.40
2023-03-03T03:09:15.371Z,59.97
2023-03-03T03:11:42.706Z,62.50
2023-03-03T03:14:15.074Z,55.75
2023-03-03T03:16:42.193Z,67.45
2023-03-03T03:19:09.252Z,65.90
2023-03-03T03:21:38.662Z,69.55
2023-03-03T03:24:05.581Z,67.30
2023-03-03T03:26:34.702Z,61.97
2023-03-03T03:29:01.447Z,62.15
2023-03-03T03:31:28.330Z,65.60
2023-03-03T03:33:57.388Z,59.95
2023-03-03T03:36:28.263Z,65.00
2023-03-03T03:38:55.093Z,63.38
2023-03-03T03:41:21.728Z,59.70
2023-03-03T03:43:53.065Z,67.25
2023-03-03T03:46:19.742Z,61.42
2023-03-03T03:48:46.460Z,67.35
2023-03-03T03:51:15.331Z,57.40
2023-03-03T03:53:42.026Z,64.40
2023-03-03T03:56:08.665Z,63.83
2023-03-03T03:58:35.294Z,60.13
2023-03-03T04:01:06.681Z,60.90
2023-03-03T04:03:38.066Z,65.43
2023-03-03T04:06:07.238Z,66.18
2023-03-03T04:08:33.848Z,60.53
2023-03-03T04:11:02.981Z,63.90
2023-03-03T04:13:34.989Z,65.63
2023-03-03T04:16:04.357Z,61.75
2023-03-03T04:18:33.245Z,62.72
2023-03-03T04:20:59.941Z,56.97
2023-03-03T04:23:26.664Z,58.28
2023-03-03T04:25:55.938Z,58.15
2023-03-03T04:28:26.336Z,59.28
2023-03-03T04:30:55.209Z,58.53
2023-03-03T04:33:24.085Z,61.13
2023-03-03T04:35:55.564Z,60.72
2023-03-03T04:38:24.523Z,61.55
2023-03-03T04:40:51.153Z,58.05
2023-03-03T04:43:17.780Z,52.92
2023-03-03T04:45:46.763Z,58.47
2023-03-03T04:48:13.412Z,53.70
2023-03-03T04:50:40.080Z,59.88
2023-03-03T04:53:06.725Z,57.90
2023-03-03T04:55:35.498Z,62.22
2023-03-03T04:58:04.649Z,63.30
2023-03-03T05:00:31.822Z,61.55
2023-03-03T05:03:01.276Z,57.30
2023-03-03T05:05:30.407Z,56.33
2023-03-03T05:07:57.049Z,57.92
2023-03-03T05:10:26.104Z,56.03
2023-03-03T05:12:52.750Z,54.47
2023-03-03T05:15:19.380Z,54.92
2023-03-03T05:17:48.428Z,53.50
2023-03-03T05:20:15.134Z,50.47
2023-03-03T05:22:44.232Z,55.63
2023-03-03T05:25:12.562Z,51.88
2023-03-03T05:27:42.672Z,46.03
2023-03-03T05:30:10.998Z,53.22
2023-03-03T05:32:43.258Z,51.78
2023-03-03T05:35:10.361Z,47.22
2023-03-03T05:37:42.649Z,53.50
2023-03-03T05:40:10.186Z,53.35
2023-03-03T05:42:41.253Z,52.15
2023-03-03T05:45:10.934Z,52.75
2023-03-03T05:47:37.745Z,55.53
2023-03-03T05:50:05.279Z,56.85
2023-03-03T05:52:34.252Z,55.35
2023-03-03T05:55:03.146Z,49.13
2023-03-03T05:57:35.793Z,48.95
2023-03-03T06:00:05.672Z,49.22
2023-03-03T06:02:32.331Z,46.92
2023-03-03T06:05:01.557Z,50.30
2023-03-03T06:07:28.193Z,49.65
2023-03-03T06:09:54.846Z,48.05
2023-03-03T06:12:22.246Z,52.88
2023-03-03T06:14:51.174Z,52.28
2023-03-03T06:17:19.950Z,46.88
2023-03-03T06:19:47.710Z,48.80
2023-03-03T06:22:14.469Z,50.33
2023-03-03T06:24:43.674Z,46.38
2023-03-03T06:27:10.766Z,46.22
2023-03-03T06:29:37.444Z,47.03
2023-03-03T06:32:06.707Z,46.13
2023-03-03T06:34:33.488Z,45.13
2023-03-03T06:37:04.764Z,45.50
2023-03-03T06:39:31.593Z,49.65
2023-03-03T06:41:58.212Z,44.80
2023-03-03T06:44:26.556Z,46.35
2023-03-03T06:46:57.228Z,48.95
2023-03-03T06:49:26.274Z,46.95
2023-03-03T06:51:52.917Z,45.75
2023-03-03T06:54:26.191Z,46.60
2023-03-03T06:57:00.461Z,51.35
2023-03-03T06:59:30.997Z,47.88
2023-03-03T07:01:58.138Z,47.55
2023-03-03T07:04:33.854Z,44.53
2023-03-03T07:07:13.603Z,48.63
2023-03-03T07:09:40.263Z,48.35
2023-03-03T07:12:11.874Z,47.95
2023-03-03T07:14:51.631Z,49.80
2023-03-03T07:17:20.018Z,47.08
2023-03-03T07:19:49.805Z,49.22
2023-03-03T07:22:21.303Z,48.50
2023-03-03T07:24:54.975Z,42.80
2023-03-03T07:27:34.347Z,48.65
2023-03-03T07:30:21.980Z,46.35
2023-03-03T07:32:49.129Z,45.58
2023-03-03T07:35:18.572Z,52.67
2023-03-03T07:37:45.773Z,47.58
2023-03-03T07:40:32.827Z,45.03
2023-03-03T07:43:02.193Z,53.97
2023-03-03T07:45:37.774Z,45.85
2023-03-03T07:48:16.999Z,44.83
2023-03-03T07:50:44.205Z,53.47
2023-03-03T07:53:29.026Z,47.95
2023-03-03T07:55:56.280Z,46.08
2023-03-03T07:58:33.845Z,45.22
2023-03-03T08:01:28.822Z,53.28
2023-03-03T08:03:56.633Z,46.80
2023-03-03T08:06:32.646Z,51.08
2023-03-03T08:09:27.616Z,48.78
2023-03-03T08:12:00.677Z,49.08
2023-03-03T08:14:35.357Z,44.08
2023-03-03T08:17:07.285Z,46.45
2023-03-03T08:19:36.938Z,49.03
2023-03-03T08:22:20.888Z,53.03
2023-03-03T08:24:47.526Z,46.20
2023-03-03T08:27:14.294Z,43.83
2023-03-03T08:29:40.977Z,43.92
2023-03-03T08:32:07.770Z,47.15
2023-03-03T08:34:34.514Z,42.70
2023-03-03T08:37:01.214Z,51.75
2023-03-03T08:39:30.288Z,47.33
2023-03-03T08:41:59.484Z,44.90
2023-03-03T08:44:26.278Z,47.85
2023-03-03T08:46:52.959Z,41.75
2023-03-03T08:49:21.825Z,45.45
2023-03-03T08:51:48.460Z,43.97
2023-03-03T08:54:20.150Z,50.53
2023-03-03T08:56:49.006Z,42.75
2023-03-03T08:59:17.846Z,45.25
2023-03-03T09:01:49.347Z,41.95
2023-03-03T09:04:18.523Z,41.70
2023-03-03T09:06:47.599Z,41.67
2023-03-03T09:09:14.421Z,42.13
2023-03-03T09:11:44.320Z,43.22
2023-03-03T09:14:16.900Z,43.88
2023-03-03T09:16:56.878Z,39.55
2023-03-03T09:19:32.447Z,41.05
2023-03-03T09:22:23.495Z,40.70
2023-03-03T09:24:53.846Z,37.55
2023-03-03T09:27:30.679Z,40.88
2023-03-03T09:30:16.922Z,39.75
2023-03-03T09:32:45.864Z,41.25
2023-03-03T09:35:36.527Z,36.85
2023-03-03T09:38:28.084Z,35.60
2023-03-03T09:41:37.373Z,36.10
2023-03-03T09:44:27.898Z,40.63
2023-03-03T09:47:29.591Z,37.17
2023-03-03T09:50:04.852Z,35.67
2023-03-03T09:52:46.566Z,36.05
2023-03-03T09:55:13.179Z,34.80
2023-03-03T09:58:36.626Z,53.63
2023-03-03T10:01:24.482Z,55.08
2023-03-03T10:04:11.709Z,45.05
2023-03-03T10:07:10.829Z,47.08
2023-03-03T10:09:43.262Z,49.25
2023-03-03T10:12:25.197Z,49.55
2023-03-03T10:15:01.147Z,52.00
2023-03-03T10:17:52.092Z,49.85
2023-03-03T10:20:50.195Z,50.55
2023-03-03T10:23:58.990Z,52.60
2023-03-03T10:26:47.390Z,52.92
2023-03-03T10:29:38.849Z,52.67
2023-03-03T10:32:40.937Z,56.08
2023-03-03T10:35:14.148Z,57.90
2023-03-03T10:37:49.769Z,56.88
2023-03-03T10:40:34.905Z,55.05
2023-03-03T10:43:31.656Z,53.75
2023-03-03T10:46:10.849Z,58.20
2023-03-03T10:49:13.477Z,56.33
2023-03-03T10:52:10.999Z,54.75
2023-03-03T10:54:56.494Z,64.60
2023-03-03T10:58:02.211Z,57.55
2023-03-03T11:00:47.891Z,62.95
2023-03-03T11:03:38.636Z,52.28
2023-03-03T11:06:16.754Z,51.25
2023-03-03T11:08:56.612Z,58.88
2023-03-03T11:11:44.788Z,47.88
2023-03-03T11:14:21.625Z,62.10
2023-03-03T11:17:17.614Z,52.50
2023-03-03T11:20:02.210Z,57.30
2023-03-03T11:22:50.231Z,54.83
2023-03-03T11:25:23.561Z,52.60
2023-03-03T11:28:11.877Z,50.92
2023-03-03T11:30:57.950Z,58.78
2023-03-03T11:36:16.745Z,59.60
2023-03-03T11:39:04.143Z,55.92
2023-03-03T11:41:33.797Z,54.35
2023-03-03T11:44:24.148Z,49.35
2023-03-03T11:47:00.565Z,54.33
2023-03-03T11:49:47.371Z,55.88
2023-03-03T11:52:40.072Z,49.20
2023-03-03T11:55:17.925Z,44.17
2023-03-03T11:58:00.933Z,44.28
2023-03-03T12:00:33.327Z,43.40
2023-03-03T12:03:37.117Z,49.83
2023-03-03T12:06:26.252Z,38.28
2023-03-03T12:09:18.618Z,49.63
2023-03-03T12:12:08.010Z,43.47
2023-03-03T12:15:02.015Z,46.83
2023-03-03T12:17:53.004Z,51.50
2023-03-03T12:20:48.767Z,54.75
2023-03-03T12:23:33.111Z,59.20
2023-03-03T12:26:29.350Z,55.15
2023-03-03T12:29:06.991Z,57.50
2023-03-03T12:31:56.879Z,63.33
2023-03-03T12:34:23.518Z,63.70
2023-03-03T12:37:19.781Z,57.30
2023-03-03T12:40:44.585Z,62.58
2023-03-03T12:43:32.889Z,58.30
2023-03-03T12:46:29.398Z,62.33
2023-03-03T12:51:30.984Z,60.97
2023-03-03T12:54:53.586Z,66.60
2023-03-03T12:57:50.231Z,62.30
2023-03-03T13:00:19.221Z,69.30
2023-03-03T13:03:30.338Z,66.88
2023-03-03T13:06:24.149Z,63.63
2023-03-03T13:08:53.627Z,61.97
2023-03-03T13:11:29.646Z,67.18
2023-03-03T13:14:26.526Z,67.63
2023-03-03T13:17:25.791Z,67.95
2023-03-03T13:20:14.618Z,70.88
2023-03-03T13:22:53.696Z,64.90
2023-03-03T13:25:52.153Z,77.05
2023-03-03T13:28:35.446Z,69.07
2023-03-03T13:31:11.427Z,70.40
2023-03-03T13:33:41.989Z,64.22
2023-03-03T13:36:14.844Z,67.35
2023-03-03T13:38:54.336Z,65.15
2023-03-03T13:41:26.193Z,65.57
2023-03-03T13:44:18.878Z,72.57
2023-03-03T13:47:08.071Z,68.32
2023-03-03T13:50:02.565Z,70.22
2023-03-03T13:52:32.674Z,65.47
2023-03-03T13:55:13.203Z,74.05
2023-03-03T13:57:59.268Z,64.43
2023-03-03T14:02:55.523Z,64.10
2023-03-03T14:05:40.529Z,58.38
2023-03-03T14:08:21.410Z,60.33
2023-03-03T14:11:02.921Z,63.40
2023-03-03T14:13:37.979Z,57.78
2023-03-03T14:16:11.228Z,69.07
2023-03-03T14:18:55.890Z,59.63
2023-03-03T14:21:38.519Z,60.13
2023-03-03T14:24:22.414Z,58.65
2023-03-03T14:26:51.829Z,57.30
2023-03-03T14:29:27.525Z,57.67
2023-03-03T14:34:58.277Z,50.05
2023-03-03T14:37:41.872Z,47.60
2023-03-03T14:40:14.511Z,54.00
2023-03-03T14:42:55.313Z,49.35
2023-03-03T14:45:40.022Z,49.88
2023-03-03T14:48:18.340Z,47.35
2023-03-03T14:50:52.295Z,47.70
2023-03-03T14:53:18.880Z,50.58
2023-03-03T14:55:50.565Z,49.42
2023-03-03T14:58:29.480Z,56.42
2023-03-03T15:01:27.871Z,52.95
2023-03-03T15:03:57.538Z,53.90
2023-03-03T15:06:29.461Z,51.78
2023-03-03T15:08:56.261Z,53.17
2023-03-03T15:11:32.116Z,54.03
2023-03-03T15:14:22.874Z,54.05
2023-03-03T15:16:52.005Z,48.05
2023-03-03T15:19:43.244Z,48.38
2023-03-03T15:22:28.620Z,49.13
2023-03-03T15:25:11.505Z,44.78
2023-03-03T15:27:44.576Z,45.25
2023-03-03T15:30:30.561Z,44.85
2023-03-03T15:33:03.064Z,48.72
2023-03-03T15:35:59.783Z,44.20
2023-03-03T15:38:55.428Z,44.45
2023-03-03T15:41:55.680Z,45.30
2023-03-03T15:45:01.567Z,48.33
2023-03-03T15:47:43.398Z,45.65
2023-03-03T15:50:27.031Z,43.97
2023-03-03T15:53:03.901Z,46.00
2023-03-03T15:56:06.350Z,42.15
2023-03-03T15:58:47.756Z,39.97
2023-03-03T16:01:32.908Z,46.50
2023-03-03T16:04:10.950Z,45.00
2023-03-03T16:06:38.440Z,36.88
2023-03-03T16:09:14.142Z,38.20
2023-03-03T16:14:35.285Z,41.97
2023-03-03T16:17:32.491Z,42.78
2023-03-03T16:20:27.101Z,45.05
2023-03-03T16:23:24.238Z,43.95
2023-03-03T16:26:02.788Z,48.75
2023-03-03T16:28:51.244Z,51.35
2023-03-03T16:31:31.471Z,48.20
2023-03-03T16:34:42.310Z,49.08
2023-03-03T16:37:29.221Z,51.17
2023-03-03T16:39:56.742Z,55.20
2023-03-03T16:42:28.068Z,51.00
2023-03-03T16:45:03.034Z,59.08
2023-03-03T16:47:59.376Z,69.88
2023-03-03T16:50:41.458Z,70.38
2023-03-03T16:53:13.719Z,75.35
2023-03-03T16:56:15.385Z,78.03
2023-03-03T16:59:04.518Z,77.47
2023-03-03T17:01:48.169Z,78.57
2023-03-03T17:04:40.739Z,82.50
2023-03-03T17:07:13.388Z,78.15
2023-03-03T17:09:45.019Z,80.47
2023-03-03T17:12:26.864Z,85.72
2023-03-03T17:15:08.462Z,81.15
2023-03-03T17:17:43.748Z,82.32
2023-03-03T17:20:49.300Z,86.25
2023-03-03T17:23:57.634Z,76.90
2023-03-03T17:27:04.754Z,90.25
2023-03-03T17:29:41.471Z,87.00
2023-03-03T17:32:42.052Z,81.75
2023-03-03T17:35:11.146Z,83.85
2023-03-03T17:37:43.658Z,92.03
2023-03-03T17:40:31.504Z,87.85
2023-03-03T17:43:23.786Z,88.00
2023-03-03T17:45:53.616Z,95.57
2023-03-03T17:48:39.245Z,97.47
2023-03-03T17:51:11.993Z,86.93
2023-03-03T17:54:09.494Z,103.35
2023-03-03T17:57:04.797Z,104.32
2023-03-03T18:00:09.545Z,95.28
2023-03-03T18:03:01.979Z,102.70
2023-03-03T18:05:37.748Z,92.63
2023-03-03T18:10:57.182Z,101.65
2023-03-03T18:14:14.308Z,102.78
2023-03-03T18:16:43.909Z,99.07
2023-03-03T18:19:50.721Z,107.35
2023-03-03T18:22:45.633Z,114.35
2023-03-03T18:25:26.787Z,106.75
2023-03-03T18:27:59.536Z,100.25
2023-03-03T18:31:00.037Z,107.40
2023-03-03T18:33:43.761Z,111.68
2023-03-03T18:36:26.680Z,96.40
2023-03-03T18:38:58.842Z,117.57
2023-03-03T18:41:46.161Z,104.53
2023-03-03T18:44:33.103Z,98.50
2023-03-03T18:47:02.314Z,98.32
2023-03-03T18:49:55.567Z,114.78
2023-03-03T18:52:24.270Z,115.10
2023-03-03T18:55:16.728Z,119.30
2023-03-03T18:58:02.537Z,121.90
2023-03-03T19:00:30.594Z,114.15
2023-03-03T19:03:01.691Z,118.45
2023-03-03T19:05:46.194Z,113.88
2023-03-03T19:08:25.640Z,115.50
2023-03-03T19:10:54.749Z,124.35
2023-03-03T19:13:38.452Z,119.05
2023-03-03T19:16:28.959Z,111.68
2023-03-03T19:18:55.567Z,126.53
2023-03-03T19:21:31.080Z,124.68
2023-03-03T19:24:05.545Z,123.25
2023-03-03T19:26:48.148Z,121.22
2023-03-03T19:29:36.640Z,122.68
2023-03-03T19:33:00.810Z,124.38
2023-03-03T19:35:38.563Z,120.30
2023-03-03T19:38:23.797Z,120.47
2023-03-03T19:41:11.682Z,124.35
2023-03-03T19:44:05.532Z,123.07
2023-03-03T19:46:50.146Z,116.60
2023-03-03T19:49:45.878Z,125.18
2023-03-03T19:52:31.350Z,125.57
2023-03-03T19:55:00.766Z,127.82
2023-03-03T19:57:35.254Z,128.88
2023-03-03T20:00:15.623Z,128.77
2023-03-03T20:02:51.151Z,134.90
2023-03-03T20:05:52.818Z,139.02
2023-03-03T20:08:41.493Z,128.77
2023-03-03T20:11:17.355Z,117.03
2023-03-03T20:14:21.058Z,124.63
2023-03-03T20:16:50.347Z,126.00
2023-03-03T20:19:46.251Z,129.02
2023-03-03T20:22:31.550Z,118.65
2023-03-03T20:25:10.476Z,128.10
2023-03-03T20:27:54.311Z,126.90
2023-03-03T20:30:48.032Z,119.57
2023-03-03T20:33:29.053Z,108.03
2023-03-03T20:36:15.165Z,116.32
2023-03-03T20:41:46.865Z,110.15
2023-03-03T20:44:39.953Z,116.28
2023-03-03T20:47:27.504Z,113.22
2023-03-03T20:50:37.221Z,101.18
2023-03-03T20:53:17.669Z,109.30
2023-03-03T20:56:02.600Z,102.60
2023-03-03T20:58:42.692Z,100.03
2023-03-03T21:01:18.715Z,100.63
2023-03-03T21:03:45.617Z,102.07
2023-03-03T21:06:15.494Z,101.20
2023-03-03T21:08:44.994Z,105.47
2023-03-03T21:11:14.422Z,104.82
2023-03-03T21:13:44.097Z,105.00
2023-03-03T21:16:22.994Z,98.68
2023-03-03T21:19:29.183Z,99.72
2023-03-03T21:21:57.007Z,101.73
2023-03-03T21:24:43.814Z,95.95
2023-03-03T21:27:29.208Z,97.50
2023-03-03T21:30:22.506Z,91.65
2023-03-03T21:32:53.753Z,90.78
2023-03-03T21:35:22.207Z,90.47
2023-03-03T21:37:59.179Z,85.00
2023-03-03T21:40:30.517Z,80.25
2023-03-03T21:43:02.909Z,81.90
2023-03-03T21:45:32.097Z,76.63
2023-03-03T21:48:01.351Z,72.25
2023-03-03T21:50:32.766Z,69.10
2023-03-03T21:53:01.940Z,76.50
2023-03-03T21:55:28.583Z,76.53
2023-03-03T21:57:55.277Z,68.97
2023-03-03T22:00:22.247Z,72.22
2023-03-03T22:02:49.152Z,70.70
2023-03-03T22:05:18.259Z,66.20
2023-03-03T22:07:44.900Z,65.15
2023-03-03T22:10:14.230Z,66.65
2023-03-03T22:12:43.080Z,73.43
2023-03-03T22:15:11.041Z,70.85
2023-03-03T22:17:37.715Z,71.18
2023-03-03T22:20:04.665Z,68.95
2023-03-03T22:22:31.322Z,65.13
2023-03-03T22:25:00.481Z,63.50
2023-03-03T22:27:27.211Z,74.38
2023-03-03T22:29:53.854Z,60.88
2023-03-03T22:32:22.821Z,70.75
2023-03-03T22:34:51.745Z,65.93
2023-03-03T22:37:18.422Z,64.15
2023-03-03T22:39:45.076Z,64.65
2023-03-03T22:42:16.347Z,68.45
2023-03-03T22:44:45.688Z,65.18
2023-03-03T22:47:12.567Z,70.38
2023-03-03T22:49:39.395Z,67.20
2023-03-03T22:52:06.030Z,64.90
2023-03-03T22:54:37.510Z,56.13
2023-03-03T22:57:04.151Z,64.25
2023-03-03T22:59:32.587Z,63.70
2023-03-03T23:02:00.605Z,61.17
2023-03-03T23:04:32.785Z,55.80
2023-03-03T23:07:02.679Z,60.22
2023-03-03T23:09:29.311Z,59.97
2023-03-03T23:11:56.189Z,59.08
2023-03-03T23:14:22.849Z,62.00
2023-03-03T23:16:49.564Z,61.92
2023-03-03T23:19:16.290Z,59.38
2023-03-03T23:21:42.952Z,61.15
2023-03-03T23:24:11.106Z,59.55
2023-03-03T23:26:38.227Z,61.65
2023-03-03T23:29:07.442Z,59.25
2023-03-03T23:31:34.197Z,59.95
2023-03-03T23:34:00.972Z,65.45
2023-03-03T23:36:27.659Z,61.67
2023-03-03T23:38:54.283Z,53.90
2023-03-03T23:41:20.933Z,54.30
2023-03-03T23:43:47.616Z,49.38
2023-03-03T23:46:16.537Z,57.47
2023-03-03T23:48:45.697Z,53.38
2023-03-03T23:51:12.513Z,54.30
2023-03-03T23:53:41.442Z,62.50
2023-03-03T23:56:08.089Z,56.58
2023-03-03T23:58:34.736Z,54.08
